Vittoria — 3FJY5 — position and weather

sailwx.info

Track history (hours):
 
Tides and Currents Weather Stations Pressure Air Temp Water Temp Dewpoint Dewpoint Depression Visibility Wind Speed Wind Dir Waves Ship Positions

Vittoria

Last reported at 2017-Nov-12 00:00 UTC. Time now 2017-Nov-23 01:37 UTC.
Position N 38°14' W 124°40'.
Warning: this ship's position is 11 days out of date.

Length 211 m; draft 11.7 m.

Type: Cargo ship. MMSI: 354314000.

Date/timePositionNaut miles runAvg speedWind from/ knotsBaromVisibWave heightAir tempDewpointWater temp
2017-Nov-12 00:00N 38°14' W 124°40'712.8
2017-Nov-11 23:29N 38°14' W 124°32'612.9
2017-Nov-11 23:00N 38°13' W 124°24'713.0
2017-Nov-11 22:30N 38°13' W 124°16'712.9
2017-Nov-11 22:00N 38°13' W 124°08'612.7
2017-Nov-11 21:30N 38°12' W 123°60'713.0
2017-Nov-11 21:00N 38°12' W 123°51'713.5
2017-Nov-11 20:30N 38°12' W 123°43'713.4
2017-Nov-11 20:00N 38°12' W 123°34'612.8
2017-Nov-11 19:30N 38°12' W 123°26'510.9
2017-Nov-11 19:00N 38°09' W 123°20'611.2
2017-Nov-11 18:30N 38°05' W 123°15'612.0
2017-Nov-11 18:00N 38°00' W 123°11'612.3
2017-Nov-11 17:30N 37°57' W 123°04'612.2
2017-Nov-11 17:00N 37°53' W 122°58'611.9
2017-Nov-11 16:30N 37°51' W 122°51'612.0
2017-Nov-11 16:00N 37°48' W 122°45'4 7.0
2017-Nov-11 15:30N 37°46' W 122°40'510.6
2017-Nov-11 15:00N 37°47' W 122°34'611.5
2017-Nov-11 14:31N 37°50' W 122°27'4 8.7
2017-Nov-11 14:01N 37°48' W 122°22'2 4.9
2017-Nov-11 13:30N 37°46' W 122°21'0 0.2
2017-Nov-11 13:00N 37°46' W 122°21'0 0.1
2017-Nov-11 12:30N 37°46' W 122°21'0 0.0
2017-Nov-11 12:00N 37°46' W 122°21'0 0.0
2017-Nov-11 11:30N 37°46' W 122°21'0 0.1
2017-Nov-11 11:00N 37°46' W 122°21'0 0.0
2017-Nov-11 10:30N 37°46' W 122°21'0 0.1
2017-Nov-11 10:00N 37°46' W 122°21'0 0.0
2017-Nov-11 09:30N 37°46' W 122°21'0 0.1
2017-Nov-11 09:00N 37°46' W 122°21'0 0.4
2017-Nov-11 08:30N 37°46' W 122°21'0 0.1
2017-Nov-11 07:59N 37°46' W 122°21'0 0.0
2017-Nov-11 07:29N 37°46' W 122°21'0 0.0
2017-Nov-11 07:00N 37°46' W 122°21'0 0.0
2017-Nov-11 06:30N 37°46' W 122°21'0 0.0
2017-Nov-11 06:00N 37°46' W 122°21'0 0.0
2017-Nov-11 05:30N 37°46' W 122°21'0 0.0
2017-Nov-11 05:00N 37°46' W 122°21'0 0.0
2017-Nov-11 04:30N 37°46' W 122°21'0 0.1
2017-Nov-11 04:00N 37°46' W 122°21'0 0.1
2017-Nov-11 03:30N 37°46' W 122°21'0 0.1
2017-Nov-11 02:59N 37°46' W 122°21'0 0.1
2017-Nov-11 02:30N 37°46' W 122°21'0 0.0
2017-Nov-11 02:00N 37°46' W 122°21'1 2.8
2017-Nov-11 01:30N 37°47' W 122°22'5 9.7
2017-Nov-11 01:00N 37°52' W 122°25'4 7.2
2017-Nov-11 00:30N 37°55' W 122°25'3 5.3
2017-Nov-11 00:00N 37°54' W 122°22'1 1.9
2017-Nov-10 23:30N 37°55' W 122°22'0 0.0
2017-Nov-10 23:00N 37°55' W 122°22'0 0.0
2017-Nov-10 22:30N 37°55' W 122°22'0 0.0
2017-Nov-10 22:00N 37°55' W 122°22'0 0.0
2017-Nov-10 21:30N 37°55' W 122°22'0 0.0
2017-Nov-10 21:00N 37°55' W 122°22'0 0.0
2017-Nov-10 20:30N 37°55' W 122°22'0 0.0
2017-Nov-10 19:57N 37°55' W 122°22'0 0.0
2017-Nov-10 19:30N 37°55' W 122°22'0 0.0
2017-Nov-10 19:00N 37°55' W 122°22'0 0.0
2017-Nov-10 18:30N 37°55' W 122°22'0 0.0
2017-Nov-10 18:00N 37°55' W 122°22'0 0.0
2017-Nov-10 17:30N 37°55' W 122°22'0 0.0
2017-Nov-10 17:00N 37°55' W 122°22'0 0.0
2017-Nov-10 16:30N 37°55' W 122°22'0 0.0
2017-Nov-10 16:00N 37°55' W 122°22'0 0.0
2017-Nov-10 15:30N 37°55' W 122°22'0 0.0
2017-Nov-10 15:00N 37°55' W 122°22'0 0.0
2017-Nov-10 14:30N 37°55' W 122°22'0 0.0
2017-Nov-10 14:00N 37°55' W 122°22'0 0.0
2017-Nov-10 13:30N 37°55' W 122°22'0 0.0
2017-Nov-10 13:00N 37°55' W 122°22'0 0.0
2017-Nov-10 12:30N 37°55' W 122°22'0 0.0
2017-Nov-10 12:00N 37°55' W 122°22'0 0.0
2017-Nov-10 11:30N 37°55' W 122°22'0 0.0
2017-Nov-10 11:00N 37°55' W 122°22'0 0.0
2017-Nov-10 10:24N 37°55' W 122°22'0 0.0
2017-Nov-10 10:00N 37°55' W 122°22'0 0.0
2017-Nov-10 09:30N 37°55' W 122°22'0 0.0
2017-Nov-10 09:00N 37°55' W 122°22'0 0.0
2017-Nov-10 08:30N 37°55' W 122°22'0 0.0
2017-Nov-10 07:57N 37°55' W 122°22'0 0.0
2017-Nov-10 07:30N 37°55' W 122°22'0 0.0
2017-Nov-10 07:00N 37°55' W 122°22'0 0.0
2017-Nov-10 06:27N 37°55' W 122°22'0 0.0
2017-Nov-10 06:00N 37°55' W 122°22'0 0.0
2017-Nov-10 05:30N 37°55' W 122°22'0 0.0
2017-Nov-10 05:00N 37°55' W 122°22'0 0.0
2017-Nov-10 04:30N 37°55' W 122°22'0 0.0
2017-Nov-10 04:00N 37°55' W 122°22'0 0.0
2017-Nov-10 03:30N 37°55' W 122°22'0 0.0
2017-Nov-10 03:00N 37°55' W 122°22'0 0.0
2017-Nov-10 02:30N 37°55' W 122°22'0 0.0
2017-Nov-10 02:00N 37°55' W 122°22'0 0.0
2017-Nov-10 01:30N 37°55' W 122°22'0 0.0
2017-Nov-10 01:00N 37°55' W 122°22'0 0.0
2017-Nov-10 00:30N 37°55' W 122°22'0 0.0
2017-Nov-10 00:00N 37°55' W 122°22'0 0.0
2017-Nov-09 23:27N 37°55' W 122°22'0 0.0
2017-Nov-09 23:00N 37°55' W 122°22'0 0.0
2017-Nov-09 22:27N 37°55' W 122°22'0 0.0
2017-Nov-09 22:00N 37°55' W 122°22'0 0.0
2017-Nov-09 21:30N 37°55' W 122°22'0 0.0
2017-Nov-09 21:00N 37°55' W 122°22'0 0.0
2017-Nov-09 20:30N 37°55' W 122°22'0 0.0
2017-Nov-09 20:00N 37°55' W 122°22'0 0.0
2017-Nov-09 19:30N 37°55' W 122°22'0 0.0
2017-Nov-09 19:00N 37°55' W 122°22'0 0.0
2017-Nov-09 18:30N 37°55' W 122°22'0 0.0
2017-Nov-09 18:00N 37°55' W 122°22'0 0.0
2017-Nov-09 17:30N 37°55' W 122°22'0 0.0
2017-Nov-09 17:00N 37°55' W 122°22'0 0.0
2017-Nov-09 16:30N 37°55' W 122°22'0 0.0
2017-Nov-09 16:00N 37°55' W 122°22'0 0.0
2017-Nov-09 15:30N 37°55' W 122°22'0 0.0
2017-Nov-09 15:00N 37°55' W 122°22'0 0.0
2017-Nov-09 14:29N 37°55' W 122°22'0 0.0
2017-Nov-09 14:00N 37°55' W 122°22'0 0.0
2017-Nov-09 13:30N 37°55' W 122°22'0 0.0
2017-Nov-09 12:59N 37°55' W 122°22'0 0.0
2017-Nov-09 12:29N 37°55' W 122°22'0 0.0
2017-Nov-09 12:00N 37°55' W 122°22'0 0.0
2017-Nov-09 11:30N 37°55' W 122°22'0 0.0
2017-Nov-09 11:00N 37°55' W 122°22'0 0.0
2017-Nov-09 10:30N 37°55' W 122°22'0 0.0
2017-Nov-09 10:00N 37°55' W 122°22'0 0.0
2017-Nov-09 09:30N 37°55' W 122°22'0 0.0
2017-Nov-09 08:57N 37°55' W 122°22'0 0.0
2017-Nov-09 08:30N 37°55' W 122°22'0 0.0
2017-Nov-09 07:56N 37°55' W 122°22'0 0.0
2017-Nov-09 07:24N 37°55' W 122°22'0 0.0
2017-Nov-09 07:00N 37°55' W 122°22'0 0.0
2017-Nov-09 06:23N 37°55' W 122°22'0 0.0
2017-Nov-09 06:00N 37°55' W 122°22'0 0.0
2017-Nov-09 05:29N 37°55' W 122°22'0 0.0
2017-Nov-09 05:00N 37°55' W 122°22'0 0.0
2017-Nov-09 04:29N 37°55' W 122°22'0 0.0
2017-Nov-09 03:59N 37°55' W 122°22'0 0.0
2017-Nov-09 03:29N 37°55' W 122°22'0 0.0
2017-Nov-09 03:00N 37°55' W 122°22'0 0.0
2017-Nov-09 02:29N 37°55' W 122°22'0 0.0
2017-Nov-09 01:59N 37°55' W 122°22'0 0.0
2017-Nov-09 01:29N 37°55' W 122°22'0 0.0
2017-Nov-09 00:59N 37°55' W 122°22'0 0.0
2017-Nov-09 00:29N 37°55' W 122°22'0 0.0
2017-Nov-08 23:59N 37°55' W 122°22'0 0.0
2017-Nov-08 23:29N 37°55' W 122°22'0 0.0
2017-Nov-08 22:53N 37°55' W 122°22'0 0.0
2017-Nov-08 22:29N 37°55' W 122°22'0 0.0
2017-Nov-08 21:59N 37°55' W 122°22'0 0.0
2017-Nov-08 21:29N 37°55' W 122°22'0 0.0
2017-Nov-08 21:00N 37°55' W 122°22'0 0.0
2017-Nov-08 20:30N 37°55' W 122°22'0 0.0
2017-Nov-08 19:59N 37°55' W 122°22'0 0.0
2017-Nov-08 19:29N 37°55' W 122°22'0 0.0
2017-Nov-08 18:59N 37°55' W 122°22'0 0.0
2017-Nov-08 18:29N 37°55' W 122°22'0 0.0
2017-Nov-08 17:59N 37°55' W 122°22'0 0.0
2017-Nov-08 17:29N 37°55' W 122°22'0 0.0
2017-Nov-08 16:59N 37°55' W 122°22'0 0.0
2017-Nov-08 16:29N 37°55' W 122°22'0 0.0
2017-Nov-08 15:59N 37°55' W 122°22'0 0.0
2017-Nov-08 15:29N 37°55' W 122°22'0 0.0
2017-Nov-08 14:59N 37°55' W 122°22'0 0.0
2017-Nov-08 14:29N 37°55' W 122°22'0 0.0
2017-Nov-08 13:59N 37°55' W 122°22'0 0.0
2017-Nov-08 13:29N 37°55' W 122°22'0 0.0
2017-Nov-08 12:59N 37°55' W 122°22'0 0.0
2017-Nov-08 12:29N 37°55' W 122°22'0 0.0
2017-Nov-08 11:59N 37°55' W 122°22'0 0.0
2017-Nov-08 11:29N 37°55' W 122°22'0 0.0
2017-Nov-08 10:59N 37°55' W 122°22'0 0.0
2017-Nov-08 10:29N 37°55' W 122°22'0 0.0
2017-Nov-08 09:59N 37°55' W 122°22'0 0.0
2017-Nov-08 09:29N 37°55' W 122°22'0 0.0
2017-Nov-08 08:59N 37°55' W 122°22'0 0.0
2017-Nov-08 08:29N 37°55' W 122°22'0 0.0
2017-Nov-08 07:59N 37°55' W 122°22'0 0.0
2017-Nov-08 07:26N 37°55' W 122°22'0 0.0
2017-Nov-08 06:59N 37°55' W 122°22'0 0.0
2017-Nov-08 06:29N 37°55' W 122°22'0 0.0
2017-Nov-08 05:59N 37°55' W 122°22'0 0.0
2017-Nov-08 05:29N 37°55' W 122°22'0 0.0
2017-Nov-08 04:59N 37°55' W 122°22'0 0.0
2017-Nov-08 04:29N 37°55' W 122°22'0 0.0
2017-Nov-08 03:59N 37°55' W 122°22'0 0.0
2017-Nov-08 03:29N 37°55' W 122°22'0 0.0
2017-Nov-08 02:56N 37°55' W 122°22'0 0.0
2017-Nov-08 02:29N 37°55' W 122°22'0 0.0
2017-Nov-08 01:59N 37°55' W 122°22'0 0.0
2017-Nov-08 01:29N 37°55' W 122°22'0 0.0
2017-Nov-08 00:59N 37°55' W 122°22'0 0.0
2017-Nov-08 00:29N 37°55' W 122°22'0 0.0
2017-Nov-07 23:56N 37°55' W 122°22'0 0.0
2017-Nov-07 23:29N 37°55' W 122°22'0 0.0
2017-Nov-07 22:59N 37°55' W 122°22'0 0.0
2017-Nov-07 22:29N 37°55' W 122°22'0 0.0
2017-Nov-07 21:59N 37°55' W 122°22'0 0.0
2017-Nov-07 21:29N 37°55' W 122°22'0 0.0
2017-Nov-07 20:59N 37°55' W 122°22'0 0.0
2017-Nov-07 20:29N 37°55' W 122°22'0 0.0
2017-Nov-07 19:59N 37°55' W 122°22'0 0.0
2017-Nov-07 19:29N 37°55' W 122°22'0 0.0
2017-Nov-07 18:56N 37°55' W 122°22'0 0.0
2017-Nov-07 18:26N 37°55' W 122°22'0 0.0
2017-Nov-07 17:59N 37°55' W 122°22'0 0.0
2017-Nov-07 17:29N 37°55' W 122°22'0 0.0
2017-Nov-07 16:59N 37°55' W 122°22'0 0.0
2017-Nov-07 16:29N 37°55' W 122°22'0 0.0
2017-Nov-07 15:59N 37°55' W 122°22'0 0.0
2017-Nov-07 15:29N 37°55' W 122°22'0 0.0
2017-Nov-07 14:59N 37°55' W 122°22'0 0.0
2017-Nov-07 14:29N 37°55' W 122°22'0 0.0
2017-Nov-07 13:56N 37°55' W 122°22'0 0.0
2017-Nov-07 13:29N 37°55' W 122°22'0 0.0
2017-Nov-07 12:56N 37°55' W 122°22'0 0.0
2017-Nov-07 12:29N 37°55' W 122°22'0 0.0
2017-Nov-07 11:59N 37°55' W 122°22'0 0.0
2017-Nov-07 11:23N 37°55' W 122°22'0 0.0
2017-Nov-07 10:59N 37°55' W 122°22'0 0.0
2017-Nov-07 10:29N 37°55' W 122°22'0 0.0
2017-Nov-07 09:59N 37°55' W 122°22'0 0.0
2017-Nov-07 09:29N 37°55' W 122°22'0 0.0
2017-Nov-07 08:59N 37°55' W 122°22'0 0.0
2017-Nov-07 08:29N 37°55' W 122°22'0 0.0
2017-Nov-07 07:59N 37°55' W 122°22'0 0.0
2017-Nov-07 07:29N 37°55' W 122°22'0 0.0
2017-Nov-07 06:59N 37°55' W 122°22'0 0.0
2017-Nov-07 06:29N 37°55' W 122°22'0 0.0
2017-Nov-07 05:59N 37°55' W 122°22'0 0.0
2017-Nov-07 05:29N 37°55' W 122°22'0 0.0
2017-Nov-07 04:59N 37°55' W 122°22'0 0.0
2017-Nov-07 04:29N 37°55' W 122°22'0 0.0
2017-Nov-07 03:59N 37°55' W 122°22'0 0.0
2017-Nov-07 03:29N 37°55' W 122°22'0 0.0
2017-Nov-07 02:59N 37°55' W 122°22'0 0.0
2017-Nov-07 02:29N 37°55' W 122°22'0 0.0
2017-Nov-07 01:59N 37°55' W 122°22'0 0.0
2017-Nov-07 01:29N 37°55' W 122°22'0 0.0
2017-Nov-07 00:59N 37°55' W 122°22'0 0.0
2017-Nov-07 00:29N 37°55' W 122°22'0 0.0
2017-Nov-06 23:59N 37°55' W 122°22'0 0.0
2017-Nov-06 23:29N 37°55' W 122°22'0 0.0
2017-Nov-06 22:59N 37°55' W 122°22'0 0.0
2017-Nov-06 22:29N 37°55' W 122°22'0 0.0
2017-Nov-06 21:59N 37°55' W 122°22'0 0.0
2017-Nov-06 21:29N 37°55' W 122°22'0 0.0
2017-Nov-06 20:56N 37°55' W 122°22'0 0.0
2017-Nov-06 20:29N 37°55' W 122°22'10 0.6
2017-Nov-06 02:28N 37°45' W 122°21'0 0.0
2017-Nov-06 01:58N 37°45' W 122°21'0 0.0
2017-Nov-06 01:28N 37°45' W 122°21'0 0.0
2017-Nov-06 00:58N 37°45' W 122°21'0 0.0
2017-Nov-06 00:28N 37°45' W 122°21'0 0.0
2017-Nov-05 23:58N 37°45' W 122°21'0 0.0
2017-Nov-05 23:28N 37°45' W 122°21'0 0.0
2017-Nov-05 22:58N 37°45' W 122°21'0 0.0
2017-Nov-05 22:28N 37°45' W 122°21'0 0.0
2017-Nov-05 21:58N 37°45' W 122°21'0 0.0
2017-Nov-05 21:28N 37°45' W 122°21'0 0.3
2017-Nov-05 20:58N 37°45' W 122°21'0 0.2
2017-Nov-05 20:28N 37°45' W 122°21'0 0.1
2017-Nov-05 19:58N 37°45' W 122°21'0 0.1
2017-Nov-05 19:28N 37°45' W 122°21'0 0.0
2017-Nov-05 18:58N 37°45' W 122°21'0 0.1
2017-Nov-05 18:28N 37°45' W 122°21'0 0.0
2017-Nov-05 17:58N 37°45' W 122°21'0 0.0
2017-Nov-05 17:28N 37°45' W 122°21'0 0.1
2017-Nov-05 16:58N 37°45' W 122°21'0 0.1
2017-Nov-05 16:28N 37°45' W 122°21'0 0.1
2017-Nov-05 15:58N 37°45' W 122°21'0 0.1
2017-Nov-05 15:28N 37°45' W 122°21'0 0.2
2017-Nov-05 14:58N 37°45' W 122°20'0 0.3
2017-Nov-05 14:28N 37°45' W 122°21'0 0.1
2017-Nov-05 13:58N 37°45' W 122°21'0 0.1
2017-Nov-05 13:28N 37°45' W 122°21'0 0.0
2017-Nov-05 12:58N 37°45' W 122°21'0 0.0
2017-Nov-05 12:28N 37°45' W 122°21'0 0.0
2017-Nov-05 11:58N 37°45' W 122°21'0 0.0
2017-Nov-05 11:28N 37°45' W 122°21'0 0.0
2017-Nov-05 10:58N 37°45' W 122°21'0 0.0
2017-Nov-05 10:28N 37°45' W 122°21'0 0.2
2017-Nov-05 09:58N 37°45' W 122°21'0 0.3
2017-Nov-05 09:28N 37°45' W 122°21'0 0.1
2017-Nov-05 08:58N 37°45' W 122°21'0 0.0
2017-Nov-05 08:28N 37°45' W 122°21'0 0.0
2017-Nov-05 07:58N 37°45' W 122°21'0 0.0
2017-Nov-05 07:28N 37°45' W 122°21'0 0.0
2017-Nov-05 06:58N 37°45' W 122°21'0 0.0
2017-Nov-05 06:28N 37°45' W 122°21'0 0.0
2017-Nov-05 05:58N 37°45' W 122°21'0 0.0
2017-Nov-05 05:28N 37°45' W 122°21'0 0.0
2017-Nov-05 04:58N 37°45' W 122°21'0 0.1
2017-Nov-05 04:28N 37°45' W 122°21'0 0.0
2017-Nov-05 03:58N 37°45' W 122°21'0 0.1
2017-Nov-05 03:28N 37°45' W 122°20'0 0.3
2017-Nov-05 02:58N 37°45' W 122°21'0 0.2
2017-Nov-05 02:28N 37°45' W 122°21'0 0.0
2017-Nov-05 01:58N 37°45' W 122°21'0 0.1
2017-Nov-05 01:28N 37°45' W 122°21'0 0.0
2017-Nov-05 00:58N 37°45' W 122°21'0 0.0
2017-Nov-05 00:28N 37°45' W 122°21'0 0.0
2017-Nov-04 23:58N 37°45' W 122°21'0 0.0
2017-Nov-04 23:28N 37°45' W 122°21'0 0.0
2017-Nov-04 22:58N 37°45' W 122°21'0 0.1
2017-Nov-04 22:28N 37°45' W 122°21'0 0.0
2017-Nov-04 21:58N 37°45' W 122°21'0 0.1
2017-Nov-04 21:28N 37°45' W 122°21'0 0.0
2017-Nov-04 20:58N 37°45' W 122°21'0 0.4
2017-Nov-04 20:28N 37°45' W 122°21'0 0.2
2017-Nov-04 19:58N 37°45' W 122°20'0 0.0
2017-Nov-04 19:28N 37°45' W 122°20'0 0.0
2017-Nov-04 18:58N 37°45' W 122°20'0 0.0
2017-Nov-04 18:28N 37°45' W 122°20'0 0.0
2017-Nov-04 17:58N 37°45' W 122°20'0 0.0
2017-Nov-04 17:28N 37°45' W 122°20'0 0.1
2017-Nov-04 16:58N 37°45' W 122°20'0 0.1
2017-Nov-04 16:28N 37°45' W 122°20'0 0.0
2017-Nov-04 15:58N 37°45' W 122°20'0 0.1
2017-Nov-04 15:28N 37°45' W 122°20'0 0.1
2017-Nov-04 14:58N 37°45' W 122°20'0 0.5
2017-Nov-04 14:28N 37°45' W 122°21'0 0.0
2017-Nov-04 13:58N 37°45' W 122°21'0 0.0
2017-Nov-04 13:28N 37°45' W 122°21'0 0.0
2017-Nov-04 12:58N 37°45' W 122°21'0 0.1
2017-Nov-04 12:28N 37°45' W 122°21'0 0.0
2017-Nov-04 11:58N 37°45' W 122°21'0 0.0
2017-Nov-04 11:28N 37°45' W 122°21'0 0.0
2017-Nov-04 10:58N 37°45' W 122°21'0 0.0
2017-Nov-04 10:28N 37°45' W 122°21'0 0.0
2017-Nov-04 09:58N 37°45' W 122°21'0 0.0
2017-Nov-04 09:28N 37°45' W 122°21'0 0.0
2017-Nov-04 08:58N 37°45' W 122°21'0 0.4
2017-Nov-04 08:28N 37°45' W 122°20'0 0.1
2017-Nov-04 07:58N 37°45' W 122°20'0 0.1
2017-Nov-04 07:28N 37°45' W 122°21'0 0.0
2017-Nov-04 06:58N 37°45' W 122°21'0 0.0
2017-Nov-04 06:28N 37°45' W 122°21'0 0.0
2017-Nov-04 05:58N 37°45' W 122°21'0 0.0
2017-Nov-04 05:28N 37°45' W 122°21'0 0.0
2017-Nov-04 04:58N 37°45' W 122°21'0 0.0
2017-Nov-04 04:28N 37°45' W 122°21'0 0.0
2017-Nov-04 03:58N 37°45' W 122°21'0 0.0
2017-Nov-04 03:28N 37°45' W 122°21'0 0.2
2017-Nov-04 02:58N 37°45' W 122°20'0 0.4
2017-Nov-04 02:28N 37°45' W 122°21'0 0.1
2017-Nov-04 01:58N 37°45' W 122°21'0 0.1
2017-Nov-04 01:28N 37°45' W 122°21'0 0.0
2017-Nov-04 00:58N 37°45' W 122°21'0 0.0
2017-Nov-04 00:28N 37°45' W 122°21'0 0.0
2017-Nov-03 23:58N 37°45' W 122°21'0 0.0
2017-Nov-03 23:28N 37°45' W 122°21'0 0.0
2017-Nov-03 22:58N 37°45' W 122°21'0 0.0
2017-Nov-03 22:28N 37°45' W 122°21'0 0.1
2017-Nov-03 21:58N 37°45' W 122°21'0 0.0
2017-Nov-03 21:28N 37°45' W 122°21'0 0.0
2017-Nov-03 20:58N 37°45' W 122°21'0 0.1
2017-Nov-03 20:28N 37°45' W 122°21'0 0.0
2017-Nov-03 19:58N 37°45' W 122°21'0 0.1
2017-Nov-03 19:28N 37°45' W 122°21'0 0.3
2017-Nov-03 18:58N 37°45' W 122°21'0 0.1
2017-Nov-03 18:28N 37°45' W 122°20'0 0.0
2017-Nov-03 17:58N 37°45' W 122°20'0 0.0
2017-Nov-03 17:28N 37°45' W 122°20'0 0.0
2017-Nov-03 16:58N 37°45' W 122°20'0 0.0
2017-Nov-03 16:28N 37°45' W 122°20'0 0.0
2017-Nov-03 15:58N 37°45' W 122°20'0 0.0
2017-Nov-03 15:28N 37°45' W 122°20'0 0.0
2017-Nov-03 14:58N 37°45' W 122°20'0 0.2
2017-Nov-03 14:28N 37°45' W 122°21'0 0.3
2017-Nov-03 13:58N 37°45' W 122°21'0 0.1
2017-Nov-03 13:28N 37°45' W 122°21'0 0.1
2017-Nov-03 12:58N 37°45' W 122°21'0 0.1
2017-Nov-03 12:28N 37°45' W 122°21'0 0.0
2017-Nov-03 11:58N 37°45' W 122°21'0 0.0
2017-Nov-03 11:28N 37°45' W 122°21'0 0.0
2017-Nov-03 10:58N 37°45' W 122°21'0 0.0
2017-Nov-03 10:28N 37°45' W 122°21'0 0.0
2017-Nov-03 09:58N 37°45' W 122°21'0 0.0
2017-Nov-03 09:28N 37°45' W 122°21'0 0.0
2017-Nov-03 08:58N 37°45' W 122°21'0 0.1
2017-Nov-03 08:28N 37°45' W 122°21'0 0.2
2017-Nov-03 07:58N 37°45' W 122°21'0 0.3
2017-Nov-03 07:28N 37°45' W 122°21'0 0.1
2017-Nov-03 06:58N 37°45' W 122°21'0 0.1
2017-Nov-03 06:28N 37°45' W 122°21'0 0.0
2017-Nov-03 05:58N 37°45' W 122°21'0 0.0
2017-Nov-03 05:28N 37°45' W 122°21'0 0.0
2017-Nov-03 04:58N 37°45' W 122°21'0 0.0
2017-Nov-03 04:28N 37°45' W 122°21'0 0.0
2017-Nov-03 03:58N 37°45' W 122°21'0 0.0
2017-Nov-03 03:28N 37°45' W 122°21'0 0.1
2017-Nov-03 02:58N 37°45' W 122°21'0 0.1
2017-Nov-03 02:28N 37°45' W 122°20'0 0.3
2017-Nov-03 01:58N 37°45' W 122°21'0 0.3
2017-Nov-03 01:28N 37°45' W 122°21'0 0.1
2017-Nov-03 00:58N 37°45' W 122°21'0 0.0
2017-Nov-03 00:28N 37°45' W 122°21'0 0.0
2017-Nov-02 23:58N 37°45' W 122°21'0 0.0
2017-Nov-02 23:28N 37°45' W 122°21'0 0.0
2017-Nov-02 22:58N 37°45' W 122°21'0 0.0
2017-Nov-02 22:28N 37°45' W 122°21'0 0.0
2017-Nov-02 21:58N 37°45' W 122°21'0 0.0
2017-Nov-02 21:28N 37°45' W 122°21'0 0.1
2017-Nov-02 20:58N 37°45' W 122°21'0 0.0
2017-Nov-02 20:28N 37°45' W 122°21'0 0.0
2017-Nov-02 19:55N 37°45' W 122°21'0 0.1
2017-Nov-02 19:28N 37°45' W 122°21'0 0.3
2017-Nov-02 18:58N 37°45' W 122°21'0 0.2
2017-Nov-02 18:28N 37°45' W 122°21'0 0.0
2017-Nov-02 17:58N 37°45' W 122°21'0 0.1
2017-Nov-02 17:28N 37°45' W 122°20'0 0.0
2017-Nov-02 16:58N 37°45' W 122°20'0 0.0
2017-Nov-02 16:28N 37°45' W 122°20'0 0.0
2017-Nov-02 15:58N 37°45' W 122°20'0 0.1
2017-Nov-02 15:28N 37°45' W 122°21'0 0.1
2017-Nov-02 14:58N 37°45' W 122°20'0 0.0
2017-Nov-02 14:28N 37°45' W 122°20'0 0.0
2017-Nov-02 13:58N 37°45' W 122°20'0 0.0
2017-Nov-02 13:28N 37°45' W 122°20'0 0.4
2017-Nov-02 12:58N 37°45' W 122°20'0 0.2
2017-Nov-02 12:28N 37°45' W 122°21'0 0.1
2017-Nov-02 11:58N 37°45' W 122°21'0 0.0
2017-Nov-02 11:28N 37°45' W 122°21'0 0.0
2017-Nov-02 10:58N 37°45' W 122°21'0 0.0
2017-Nov-02 10:28N 37°45' W 122°21'0 0.0
2017-Nov-02 09:58N 37°45' W 122°21'0 0.0
2017-Nov-02 09:28N 37°45' W 122°21'0 0.0
2017-Nov-02 08:58N 37°45' W 122°21'0 0.0
2017-Nov-02 08:28N 37°45' W 122°21'0 0.0
2017-Nov-02 08:01N 37°45' W 122°21'0 0.3
2017-Nov-02 07:31N 37°45' W 122°21'0 0.3
2017-Nov-02 07:01N 37°45' W 122°21'0 0.0
2017-Nov-02 06:28N 37°45' W 122°21'0 0.0
2017-Nov-02 06:01N 37°45' W 122°21'0 0.0
2017-Nov-02 05:28N 37°45' W 122°21'0 0.1
2017-Nov-02 05:01N 37°45' W 122°20'0 0.1
2017-Nov-02 04:28N 37°45' W 122°21'0 0.0
2017-Nov-02 03:58N 37°45' W 122°21'0 0.0
2017-Nov-02 03:31N 37°45' W 122°21'0 0.2
2017-Nov-02 03:00N 37°45' W 122°20'1 2.9
2017-Nov-02 02:31N 37°46' W 122°22'510.4
2017-Nov-02 02:00N 37°50' W 122°24'612.5
2017-Nov-02 01:30N 37°56' W 122°27'612.6
2017-Nov-02 01:00N 38°02' W 122°22'613.0
2017-Nov-02 00:30N 38°04' W 122°15'  
Track history (hours):
 
Tides and Currents Weather Stations Pressure Air Temp Water Temp Dewpoint Dewpoint Depression Visibility Wind Speed Wind Dir Waves Ship Positions

Vittoria

Last reported at 2017-Nov-12 00:00 UTC. Time now 2017-Nov-23 01:37 UTC.
Position N 38°14' W 124°40'.
Warning: this ship's position is 11 days out of date.

Length 211 m; draft 11.7 m.

Type: Cargo ship. MMSI: 354314000.

Date/timePositionNaut miles runAvg speedWind from/ knotsBaromVisibWave heightAir tempDewpointWater temp
2017-Nov-12 00:00N 38°14' W 124°40'712.8
2017-Nov-11 23:29N 38°14' W 124°32'612.9
2017-Nov-11 23:00N 38°13' W 124°24'713.0
2017-Nov-11 22:30N 38°13' W 124°16'712.9
2017-Nov-11 22:00N 38°13' W 124°08'612.7
2017-Nov-11 21:30N 38°12' W 123°60'713.0
2017-Nov-11 21:00N 38°12' W 123°51'713.5
2017-Nov-11 20:30N 38°12' W 123°43'713.4
2017-Nov-11 20:00N 38°12' W 123°34'612.8
2017-Nov-11 19:30N 38°12' W 123°26'510.9
2017-Nov-11 19:00N 38°09' W 123°20'611.2
2017-Nov-11 18:30N 38°05' W 123°15'612.0
2017-Nov-11 18:00N 38°00' W 123°11'612.3
2017-Nov-11 17:30N 37°57' W 123°04'612.2
2017-Nov-11 17:00N 37°53' W 122°58'611.9
2017-Nov-11 16:30N 37°51' W 122°51'612.0
2017-Nov-11 16:00N 37°48' W 122°45'4 7.0
2017-Nov-11 15:30N 37°46' W 122°40'510.6
2017-Nov-11 15:00N 37°47' W 122°34'611.5
2017-Nov-11 14:31N 37°50' W 122°27'4 8.7
2017-Nov-11 14:01N 37°48' W 122°22'2 4.9
2017-Nov-11 13:30N 37°46' W 122°21'0 0.2
2017-Nov-11 13:00N 37°46' W 122°21'0 0.1
2017-Nov-11 12:30N 37°46' W 122°21'0 0.0
2017-Nov-11 12:00N 37°46' W 122°21'0 0.0
2017-Nov-11 11:30N 37°46' W 122°21'0 0.1
2017-Nov-11 11:00N 37°46' W 122°21'0 0.0
2017-Nov-11 10:30N 37°46' W 122°21'0 0.1
2017-Nov-11 10:00N 37°46' W 122°21'0 0.0
2017-Nov-11 09:30N 37°46' W 122°21'0 0.1
2017-Nov-11 09:00N 37°46' W 122°21'0 0.4
2017-Nov-11 08:30N 37°46' W 122°21'0 0.1
2017-Nov-11 07:59N 37°46' W 122°21'0 0.0
2017-Nov-11 07:29N 37°46' W 122°21'0 0.0
2017-Nov-11 07:00N 37°46' W 122°21'0 0.0
2017-Nov-11 06:30N 37°46' W 122°21'0 0.0
2017-Nov-11 06:00N 37°46' W 122°21'0 0.0
2017-Nov-11 05:30N 37°46' W 122°21'0 0.0
2017-Nov-11 05:00N 37°46' W 122°21'0 0.0
2017-Nov-11 04:30N 37°46' W 122°21'0 0.1
2017-Nov-11 04:00N 37°46' W 122°21'0 0.1
2017-Nov-11 03:30N 37°46' W 122°21'0 0.1
2017-Nov-11 02:59N 37°46' W 122°21'0 0.1
2017-Nov-11 02:30N 37°46' W 122°21'0 0.0
2017-Nov-11 02:00N 37°46' W 122°21'1 2.8
2017-Nov-11 01:30N 37°47' W 122°22'5 9.7
2017-Nov-11 01:00N 37°52' W 122°25'4 7.2
2017-Nov-11 00:30N 37°55' W 122°25'3 5.3
2017-Nov-11 00:00N 37°54' W 122°22'1 1.9
2017-Nov-10 23:30N 37°55' W 122°22'0 0.0
2017-Nov-10 23:00N 37°55' W 122°22'0 0.0
2017-Nov-10 22:30N 37°55' W 122°22'0 0.0
2017-Nov-10 22:00N 37°55' W 122°22'0 0.0
2017-Nov-10 21:30N 37°55' W 122°22'0 0.0
2017-Nov-10 21:00N 37°55' W 122°22'0 0.0
2017-Nov-10 20:30N 37°55' W 122°22'0 0.0
2017-Nov-10 19:57N 37°55' W 122°22'0 0.0
2017-Nov-10 19:30N 37°55' W 122°22'0 0.0
2017-Nov-10 19:00N 37°55' W 122°22'0 0.0
2017-Nov-10 18:30N 37°55' W 122°22'0 0.0
2017-Nov-10 18:00N 37°55' W 122°22'0 0.0
2017-Nov-10 17:30N 37°55' W 122°22'0 0.0
2017-Nov-10 17:00N 37°55' W 122°22'0 0.0
2017-Nov-10 16:30N 37°55' W 122°22'0 0.0
2017-Nov-10 16:00N 37°55' W 122°22'0 0.0
2017-Nov-10 15:30N 37°55' W 122°22'0 0.0
2017-Nov-10 15:00N 37°55' W 122°22'0 0.0
2017-Nov-10 14:30N 37°55' W 122°22'0 0.0
2017-Nov-10 14:00N 37°55' W 122°22'0 0.0
2017-Nov-10 13:30N 37°55' W 122°22'0 0.0
2017-Nov-10 13:00N 37°55' W 122°22'0 0.0
2017-Nov-10 12:30N 37°55' W 122°22'0 0.0
2017-Nov-10 12:00N 37°55' W 122°22'0 0.0
2017-Nov-10 11:30N 37°55' W 122°22'0 0.0
2017-Nov-10 11:00N 37°55' W 122°22'0 0.0
2017-Nov-10 10:24N 37°55' W 122°22'0 0.0
2017-Nov-10 10:00N 37°55' W 122°22'0 0.0
2017-Nov-10 09:30N 37°55' W 122°22'0 0.0
2017-Nov-10 09:00N 37°55' W 122°22'0 0.0
2017-Nov-10 08:30N 37°55' W 122°22'0 0.0
2017-Nov-10 07:57N 37°55' W 122°22'0 0.0
2017-Nov-10 07:30N 37°55' W 122°22'0 0.0
2017-Nov-10 07:00N 37°55' W 122°22'0 0.0
2017-Nov-10 06:27N 37°55' W 122°22'0 0.0
2017-Nov-10 06:00N 37°55' W 122°22'0 0.0
2017-Nov-10 05:30N 37°55' W 122°22'0 0.0
2017-Nov-10 05:00N 37°55' W 122°22'0 0.0
2017-Nov-10 04:30N 37°55' W 122°22'0 0.0
2017-Nov-10 04:00N 37°55' W 122°22'0 0.0
2017-Nov-10 03:30N 37°55' W 122°22'0 0.0
2017-Nov-10 03:00N 37°55' W 122°22'0 0.0
2017-Nov-10 02:30N 37°55' W 122°22'0 0.0
2017-Nov-10 02:00N 37°55' W 122°22'0 0.0
2017-Nov-10 01:30N 37°55' W 122°22'0 0.0
2017-Nov-10 01:00N 37°55' W 122°22'0 0.0
2017-Nov-10 00:30N 37°55' W 122°22'0 0.0
2017-Nov-10 00:00N 37°55' W 122°22'0 0.0
2017-Nov-09 23:27N 37°55' W 122°22'0 0.0
2017-Nov-09 23:00N 37°55' W 122°22'0 0.0
2017-Nov-09 22:27N 37°55' W 122°22'0 0.0
2017-Nov-09 22:00N 37°55' W 122°22'0 0.0
2017-Nov-09 21:30N 37°55' W 122°22'0 0.0
2017-Nov-09 21:00N 37°55' W 122°22'0 0.0
2017-Nov-09 20:30N 37°55' W 122°22'0 0.0
2017-Nov-09 20:00N 37°55' W 122°22'0 0.0
2017-Nov-09 19:30N 37°55' W 122°22'0 0.0
2017-Nov-09 19:00N 37°55' W 122°22'0 0.0
2017-Nov-09 18:30N 37°55' W 122°22'0 0.0
2017-Nov-09 18:00N 37°55' W 122°22'0 0.0
2017-Nov-09 17:30N 37°55' W 122°22'0 0.0
2017-Nov-09 17:00N 37°55' W 122°22'0 0.0
2017-Nov-09 16:30N 37°55' W 122°22'0 0.0
2017-Nov-09 16:00N 37°55' W 122°22'0 0.0
2017-Nov-09 15:30N 37°55' W 122°22'0 0.0
2017-Nov-09 15:00N 37°55' W 122°22'0 0.0
2017-Nov-09 14:29N 37°55' W 122°22'0 0.0
2017-Nov-09 14:00N 37°55' W 122°22'0 0.0
2017-Nov-09 13:30N 37°55' W 122°22'0 0.0
2017-Nov-09 12:59N 37°55' W 122°22'0 0.0
2017-Nov-09 12:29N 37°55' W 122°22'0 0.0
2017-Nov-09 12:00N 37°55' W 122°22'0 0.0
2017-Nov-09 11:30N 37°55' W 122°22'0 0.0
2017-Nov-09 11:00N 37°55' W 122°22'0 0.0
2017-Nov-09 10:30N 37°55' W 122°22'0 0.0
2017-Nov-09 10:00N 37°55' W 122°22'0 0.0
2017-Nov-09 09:30N 37°55' W 122°22'0 0.0
2017-Nov-09 08:57N 37°55' W 122°22'0 0.0
2017-Nov-09 08:30N 37°55' W 122°22'0 0.0
2017-Nov-09 07:56N 37°55' W 122°22'0 0.0
2017-Nov-09 07:24N 37°55' W 122°22'0 0.0
2017-Nov-09 07:00N 37°55' W 122°22'0 0.0
2017-Nov-09 06:23N 37°55' W 122°22'0 0.0
2017-Nov-09 06:00N 37°55' W 122°22'0 0.0
2017-Nov-09 05:29N 37°55' W 122°22'0 0.0
2017-Nov-09 05:00N 37°55' W 122°22'0 0.0
2017-Nov-09 04:29N 37°55' W 122°22'0 0.0
2017-Nov-09 03:59N 37°55' W 122°22'0 0.0
2017-Nov-09 03:29N 37°55' W 122°22'0 0.0
2017-Nov-09 03:00N 37°55' W 122°22'0 0.0
2017-Nov-09 02:29N 37°55' W 122°22'0 0.0
2017-Nov-09 01:59N 37°55' W 122°22'0 0.0
2017-Nov-09 01:29N 37°55' W 122°22'0 0.0
2017-Nov-09 00:59N 37°55' W 122°22'0 0.0
2017-Nov-09 00:29N 37°55' W 122°22'0 0.0
2017-Nov-08 23:59N 37°55' W 122°22'0 0.0
2017-Nov-08 23:29N 37°55' W 122°22'0 0.0
2017-Nov-08 22:53N 37°55' W 122°22'0 0.0
2017-Nov-08 22:29N 37°55' W 122°22'0 0.0
2017-Nov-08 21:59N 37°55' W 122°22'0 0.0
2017-Nov-08 21:29N 37°55' W 122°22'0 0.0
2017-Nov-08 21:00N 37°55' W 122°22'0 0.0
2017-Nov-08 20:30N 37°55' W 122°22'0 0.0
2017-Nov-08 19:59N 37°55' W 122°22'0 0.0
2017-Nov-08 19:29N 37°55' W 122°22'0 0.0
2017-Nov-08 18:59N 37°55' W 122°22'0 0.0
2017-Nov-08 18:29N 37°55' W 122°22'0 0.0
2017-Nov-08 17:59N 37°55' W 122°22'0 0.0
2017-Nov-08 17:29N 37°55' W 122°22'0 0.0
2017-Nov-08 16:59N 37°55' W 122°22'0 0.0
2017-Nov-08 16:29N 37°55' W 122°22'0 0.0
2017-Nov-08 15:59N 37°55' W 122°22'0 0.0
2017-Nov-08 15:29N 37°55' W 122°22'0 0.0
2017-Nov-08 14:59N 37°55' W 122°22'0 0.0
2017-Nov-08 14:29N 37°55' W 122°22'0 0.0
2017-Nov-08 13:59N 37°55' W 122°22'0 0.0
2017-Nov-08 13:29N 37°55' W 122°22'0 0.0
2017-Nov-08 12:59N 37°55' W 122°22'0 0.0
2017-Nov-08 12:29N 37°55' W 122°22'0 0.0
2017-Nov-08 11:59N 37°55' W 122°22'0 0.0
2017-Nov-08 11:29N 37°55' W 122°22'0 0.0
2017-Nov-08 10:59N 37°55' W 122°22'0 0.0
2017-Nov-08 10:29N 37°55' W 122°22'0 0.0
2017-Nov-08 09:59N 37°55' W 122°22'0 0.0
2017-Nov-08 09:29N 37°55' W 122°22'0 0.0
2017-Nov-08 08:59N 37°55' W 122°22'0 0.0
2017-Nov-08 08:29N 37°55' W 122°22'0 0.0
2017-Nov-08 07:59N 37°55' W 122°22'0 0.0
2017-Nov-08 07:26N 37°55' W 122°22'0 0.0
2017-Nov-08 06:59N 37°55' W 122°22'0 0.0
2017-Nov-08 06:29N 37°55' W 122°22'0 0.0
2017-Nov-08 05:59N 37°55' W 122°22'0 0.0
2017-Nov-08 05:29N 37°55' W 122°22'0 0.0
2017-Nov-08 04:59N 37°55' W 122°22'0 0.0
2017-Nov-08 04:29N 37°55' W 122°22'0 0.0
2017-Nov-08 03:59N 37°55' W 122°22'0 0.0
2017-Nov-08 03:29N 37°55' W 122°22'0 0.0
2017-Nov-08 02:56N 37°55' W 122°22'0 0.0
2017-Nov-08 02:29N 37°55' W 122°22'0 0.0
2017-Nov-08 01:59N 37°55' W 122°22'0 0.0
2017-Nov-08 01:29N 37°55' W 122°22'0 0.0
2017-Nov-08 00:59N 37°55' W 122°22'0 0.0
2017-Nov-08 00:29N 37°55' W 122°22'0 0.0
2017-Nov-07 23:56N 37°55' W 122°22'0 0.0
2017-Nov-07 23:29N 37°55' W 122°22'0 0.0
2017-Nov-07 22:59N 37°55' W 122°22'0 0.0
2017-Nov-07 22:29N 37°55' W 122°22'0 0.0
2017-Nov-07 21:59N 37°55' W 122°22'0 0.0
2017-Nov-07 21:29N 37°55' W 122°22'0 0.0
2017-Nov-07 20:59N 37°55' W 122°22'0 0.0
2017-Nov-07 20:29N 37°55' W 122°22'0 0.0
2017-Nov-07 19:59N 37°55' W 122°22'0 0.0
2017-Nov-07 19:29N 37°55' W 122°22'0 0.0
2017-Nov-07 18:56N 37°55' W 122°22'0 0.0
2017-Nov-07 18:26N 37°55' W 122°22'0 0.0
2017-Nov-07 17:59N 37°55' W 122°22'0 0.0
2017-Nov-07 17:29N 37°55' W 122°22'0 0.0
2017-Nov-07 16:59N 37°55' W 122°22'0 0.0
2017-Nov-07 16:29N 37°55' W 122°22'0 0.0
2017-Nov-07 15:59N 37°55' W 122°22'0 0.0
2017-Nov-07 15:29N 37°55' W 122°22'0 0.0
2017-Nov-07 14:59N 37°55' W 122°22'0 0.0
2017-Nov-07 14:29N 37°55' W 122°22'0 0.0
2017-Nov-07 13:56N 37°55' W 122°22'0 0.0
2017-Nov-07 13:29N 37°55' W 122°22'0 0.0
2017-Nov-07 12:56N 37°55' W 122°22'0 0.0
2017-Nov-07 12:29N 37°55' W 122°22'0 0.0
2017-Nov-07 11:59N 37°55' W 122°22'0 0.0
2017-Nov-07 11:23N 37°55' W 122°22'0 0.0
2017-Nov-07 10:59N 37°55' W 122°22'0 0.0
2017-Nov-07 10:29N 37°55' W 122°22'0 0.0
2017-Nov-07 09:59N 37°55' W 122°22'0 0.0
2017-Nov-07 09:29N 37°55' W 122°22'0 0.0
2017-Nov-07 08:59N 37°55' W 122°22'0 0.0
2017-Nov-07 08:29N 37°55' W 122°22'0 0.0
2017-Nov-07 07:59N 37°55' W 122°22'0 0.0
2017-Nov-07 07:29N 37°55' W 122°22'0 0.0
2017-Nov-07 06:59N 37°55' W 122°22'0 0.0
2017-Nov-07 06:29N 37°55' W 122°22'0 0.0
2017-Nov-07 05:59N 37°55' W 122°22'0 0.0
2017-Nov-07 05:29N 37°55' W 122°22'0 0.0
2017-Nov-07 04:59N 37°55' W 122°22'0 0.0
2017-Nov-07 04:29N 37°55' W 122°22'0 0.0
2017-Nov-07 03:59N 37°55' W 122°22'0 0.0
2017-Nov-07 03:29N 37°55' W 122°22'0 0.0
2017-Nov-07 02:59N 37°55' W 122°22'0 0.0
2017-Nov-07 02:29N 37°55' W 122°22'0 0.0
2017-Nov-07 01:59N 37°55' W 122°22'0 0.0
2017-Nov-07 01:29N 37°55' W 122°22'0 0.0
2017-Nov-07 00:59N 37°55' W 122°22'0 0.0
2017-Nov-07 00:29N 37°55' W 122°22'0 0.0
2017-Nov-06 23:59N 37°55' W 122°22'0 0.0
2017-Nov-06 23:29N 37°55' W 122°22'0 0.0
2017-Nov-06 22:59N 37°55' W 122°22'0 0.0
2017-Nov-06 22:29N 37°55' W 122°22'0 0.0
2017-Nov-06 21:59N 37°55' W 122°22'0 0.0
2017-Nov-06 21:29N 37°55' W 122°22'0 0.0
2017-Nov-06 20:56N 37°55' W 122°22'0 0.0
2017-Nov-06 20:29N 37°55' W 122°22'10 0.6
2017-Nov-06 02:28N 37°45' W 122°21'0 0.0
2017-Nov-06 01:58N 37°45' W 122°21'0 0.0
2017-Nov-06 01:28N 37°45' W 122°21'0 0.0
2017-Nov-06 00:58N 37°45' W 122°21'0 0.0
2017-Nov-06 00:28N 37°45' W 122°21'0 0.0
2017-Nov-05 23:58N 37°45' W 122°21'0 0.0
2017-Nov-05 23:28N 37°45' W 122°21'0 0.0
2017-Nov-05 22:58N 37°45' W 122°21'0 0.0
2017-Nov-05 22:28N 37°45' W 122°21'0 0.0
2017-Nov-05 21:58N 37°45' W 122°21'0 0.0
2017-Nov-05 21:28N 37°45' W 122°21'0 0.3
2017-Nov-05 20:58N 37°45' W 122°21'0 0.2
2017-Nov-05 20:28N 37°45' W 122°21'0 0.1
2017-Nov-05 19:58N 37°45' W 122°21'0 0.1
2017-Nov-05 19:28N 37°45' W 122°21'0 0.0
2017-Nov-05 18:58N 37°45' W 122°21'0 0.1
2017-Nov-05 18:28N 37°45' W 122°21'0 0.0
2017-Nov-05 17:58N 37°45' W 122°21'0 0.0
2017-Nov-05 17:28N 37°45' W 122°21'0 0.1
2017-Nov-05 16:58N 37°45' W 122°21'0 0.1
2017-Nov-05 16:28N 37°45' W 122°21'0 0.1
2017-Nov-05 15:58N 37°45' W 122°21'0 0.1
2017-Nov-05 15:28N 37°45' W 122°21'0 0.2
2017-Nov-05 14:58N 37°45' W 122°20'0 0.3
2017-Nov-05 14:28N 37°45' W 122°21'0 0.1
2017-Nov-05 13:58N 37°45' W 122°21'0 0.1
2017-Nov-05 13:28N 37°45' W 122°21'0 0.0
2017-Nov-05 12:58N 37°45' W 122°21'0 0.0
2017-Nov-05 12:28N 37°45' W 122°21'0 0.0
2017-Nov-05 11:58N 37°45' W 122°21'0 0.0
2017-Nov-05 11:28N 37°45' W 122°21'0 0.0
2017-Nov-05 10:58N 37°45' W 122°21'0 0.0
2017-Nov-05 10:28N 37°45' W 122°21'0 0.2
2017-Nov-05 09:58N 37°45' W 122°21'0 0.3
2017-Nov-05 09:28N 37°45' W 122°21'0 0.1
2017-Nov-05 08:58N 37°45' W 122°21'0 0.0
2017-Nov-05 08:28N 37°45' W 122°21'0 0.0
2017-Nov-05 07:58N 37°45' W 122°21'0 0.0
2017-Nov-05 07:28N 37°45' W 122°21'0 0.0
2017-Nov-05 06:58N 37°45' W 122°21'0 0.0
2017-Nov-05 06:28N 37°45' W 122°21'0 0.0
2017-Nov-05 05:58N 37°45' W 122°21'0 0.0
2017-Nov-05 05:28N 37°45' W 122°21'0 0.0
2017-Nov-05 04:58N 37°45' W 122°21'0 0.1
2017-Nov-05 04:28N 37°45' W 122°21'0 0.0
2017-Nov-05 03:58N 37°45' W 122°21'0 0.1
2017-Nov-05 03:28N 37°45' W 122°20'0 0.3
2017-Nov-05 02:58N 37°45' W 122°21'0 0.2
2017-Nov-05 02:28N 37°45' W 122°21'0 0.0
2017-Nov-05 01:58N 37°45' W 122°21'0 0.1
2017-Nov-05 01:28N 37°45' W 122°21'0 0.0
2017-Nov-05 00:58N 37°45' W 122°21'0 0.0
2017-Nov-05 00:28N 37°45' W 122°21'0 0.0
2017-Nov-04 23:58N 37°45' W 122°21'0 0.0
2017-Nov-04 23:28N 37°45' W 122°21'0 0.0
2017-Nov-04 22:58N 37°45' W 122°21'0 0.1
2017-Nov-04 22:28N 37°45' W 122°21'0 0.0
2017-Nov-04 21:58N 37°45' W 122°21'0 0.1
2017-Nov-04 21:28N 37°45' W 122°21'0 0.0
2017-Nov-04 20:58N 37°45' W 122°21'0 0.4
2017-Nov-04 20:28N 37°45' W 122°21'0 0.2
2017-Nov-04 19:58N 37°45' W 122°20'0 0.0
2017-Nov-04 19:28N 37°45' W 122°20'0 0.0
2017-Nov-04 18:58N 37°45' W 122°20'0 0.0
2017-Nov-04 18:28N 37°45' W 122°20'0 0.0
2017-Nov-04 17:58N 37°45' W 122°20'0 0.0
2017-Nov-04 17:28N 37°45' W 122°20'0 0.1
2017-Nov-04 16:58N 37°45' W 122°20'0 0.1
2017-Nov-04 16:28N 37°45' W 122°20'0 0.0
2017-Nov-04 15:58N 37°45' W 122°20'0 0.1
2017-Nov-04 15:28N 37°45' W 122°20'0 0.1
2017-Nov-04 14:58N 37°45' W 122°20'0 0.5
2017-Nov-04 14:28N 37°45' W 122°21'0 0.0
2017-Nov-04 13:58N 37°45' W 122°21'0 0.0
2017-Nov-04 13:28N 37°45' W 122°21'0 0.0
2017-Nov-04 12:58N 37°45' W 122°21'0 0.1
2017-Nov-04 12:28N 37°45' W 122°21'0 0.0
2017-Nov-04 11:58N 37°45' W 122°21'0 0.0
2017-Nov-04 11:28N 37°45' W 122°21'0 0.0
2017-Nov-04 10:58N 37°45' W 122°21'0 0.0
2017-Nov-04 10:28N 37°45' W 122°21'0 0.0
2017-Nov-04 09:58N 37°45' W 122°21'0 0.0
2017-Nov-04 09:28N 37°45' W 122°21'0 0.0
2017-Nov-04 08:58N 37°45' W 122°21'0 0.4
2017-Nov-04 08:28N 37°45' W 122°20'0 0.1
2017-Nov-04 07:58N 37°45' W 122°20'0 0.1
2017-Nov-04 07:28N 37°45' W 122°21'0 0.0
2017-Nov-04 06:58N 37°45' W 122°21'0 0.0
2017-Nov-04 06:28N 37°45' W 122°21'0 0.0
2017-Nov-04 05:58N 37°45' W 122°21'0 0.0
2017-Nov-04 05:28N 37°45' W 122°21'0 0.0
2017-Nov-04 04:58N 37°45' W 122°21'0 0.0
2017-Nov-04 04:28N 37°45' W 122°21'0 0.0
2017-Nov-04 03:58N 37°45' W 122°21'0 0.0
2017-Nov-04 03:28N 37°45' W 122°21'0 0.2
2017-Nov-04 02:58N 37°45' W 122°20'0 0.4
2017-Nov-04 02:28N 37°45' W 122°21'0 0.1
2017-Nov-04 01:58N 37°45' W 122°21'0 0.1
2017-Nov-04 01:28N 37°45' W 122°21'0 0.0
2017-Nov-04 00:58N 37°45' W 122°21'0 0.0
2017-Nov-04 00:28N 37°45' W 122°21'0 0.0
2017-Nov-03 23:58N 37°45' W 122°21'0 0.0
2017-Nov-03 23:28N 37°45' W 122°21'0 0.0
2017-Nov-03 22:58N 37°45' W 122°21'0 0.0
2017-Nov-03 22:28N 37°45' W 122°21'0 0.1
2017-Nov-03 21:58N 37°45' W 122°21'0 0.0
2017-Nov-03 21:28N 37°45' W 122°21'0 0.0
2017-Nov-03 20:58N 37°45' W 122°21'0 0.1
2017-Nov-03 20:28N 37°45' W 122°21'0 0.0
2017-Nov-03 19:58N 37°45' W 122°21'0 0.1
2017-Nov-03 19:28N 37°45' W 122°21'0 0.3
2017-Nov-03 18:58N 37°45' W 122°21'0 0.1
2017-Nov-03 18:28N 37°45' W 122°20'0 0.0
2017-Nov-03 17:58N 37°45' W 122°20'0 0.0
2017-Nov-03 17:28N 37°45' W 122°20'0 0.0
2017-Nov-03 16:58N 37°45' W 122°20'0 0.0
2017-Nov-03 16:28N 37°45' W 122°20'0 0.0
2017-Nov-03 15:58N 37°45' W 122°20'0 0.0
2017-Nov-03 15:28N 37°45' W 122°20'0 0.0
2017-Nov-03 14:58N 37°45' W 122°20'0 0.2
2017-Nov-03 14:28N 37°45' W 122°21'0 0.3
2017-Nov-03 13:58N 37°45' W 122°21'0 0.1
2017-Nov-03 13:28N 37°45' W 122°21'0 0.1
2017-Nov-03 12:58N 37°45' W 122°21'0 0.1
2017-Nov-03 12:28N 37°45' W 122°21'0 0.0
2017-Nov-03 11:58N 37°45' W 122°21'0 0.0
2017-Nov-03 11:28N 37°45' W 122°21'0 0.0
2017-Nov-03 10:58N 37°45' W 122°21'0 0.0
2017-Nov-03 10:28N 37°45' W 122°21'0 0.0
2017-Nov-03 09:58N 37°45' W 122°21'0 0.0
2017-Nov-03 09:28N 37°45' W 122°21'0 0.0
2017-Nov-03 08:58N 37°45' W 122°21'0 0.1
2017-Nov-03 08:28N 37°45' W 122°21'0 0.2
2017-Nov-03 07:58N 37°45' W 122°21'0 0.3
2017-Nov-03 07:28N 37°45' W 122°21'0 0.1
2017-Nov-03 06:58N 37°45' W 122°21'0 0.1
2017-Nov-03 06:28N 37°45' W 122°21'0 0.0
2017-Nov-03 05:58N 37°45' W 122°21'0 0.0
2017-Nov-03 05:28N 37°45' W 122°21'0 0.0
2017-Nov-03 04:58N 37°45' W 122°21'0 0.0
2017-Nov-03 04:28N 37°45' W 122°21'0 0.0
2017-Nov-03 03:58N 37°45' W 122°21'0 0.0
2017-Nov-03 03:28N 37°45' W 122°21'0 0.1
2017-Nov-03 02:58N 37°45' W 122°21'0 0.1
2017-Nov-03 02:28N 37°45' W 122°20'0 0.3
2017-Nov-03 01:58N 37°45' W 122°21'0 0.3
2017-Nov-03 01:28N 37°45' W 122°21'0 0.1
2017-Nov-03 00:58N 37°45' W 122°21'0 0.0
2017-Nov-03 00:28N 37°45' W 122°21'0 0.0
2017-Nov-02 23:58N 37°45' W 122°21'0 0.0
2017-Nov-02 23:28N 37°45' W 122°21'0 0.0
2017-Nov-02 22:58N 37°45' W 122°21'0 0.0
2017-Nov-02 22:28N 37°45' W 122°21'0 0.0
2017-Nov-02 21:58N 37°45' W 122°21'0 0.0
2017-Nov-02 21:28N 37°45' W 122°21'0 0.1
2017-Nov-02 20:58N 37°45' W 122°21'0 0.0
2017-Nov-02 20:28N 37°45' W 122°21'0 0.0
2017-Nov-02 19:55N 37°45' W 122°21'0 0.1
2017-Nov-02 19:28N 37°45' W 122°21'0 0.3
2017-Nov-02 18:58N 37°45' W 122°21'0 0.2
2017-Nov-02 18:28N 37°45' W 122°21'0 0.0
2017-Nov-02 17:58N 37°45' W 122°21'0 0.1
2017-Nov-02 17:28N 37°45' W 122°20'0 0.0
2017-Nov-02 16:58N 37°45' W 122°20'0 0.0
2017-Nov-02 16:28N 37°45' W 122°20'0 0.0
2017-Nov-02 15:58N 37°45' W 122°20'0 0.1
2017-Nov-02 15:28N 37°45' W 122°21'0 0.1
2017-Nov-02 14:58N 37°45' W 122°20'0 0.0
2017-Nov-02 14:28N 37°45' W 122°20'0 0.0
2017-Nov-02 13:58N 37°45' W 122°20'0 0.0
2017-Nov-02 13:28N 37°45' W 122°20'0 0.4
2017-Nov-02 12:58N 37°45' W 122°20'0 0.2
2017-Nov-02 12:28N 37°45' W 122°21'0 0.1
2017-Nov-02 11:58N 37°45' W 122°21'0 0.0
2017-Nov-02 11:28N 37°45' W 122°21'0 0.0
2017-Nov-02 10:58N 37°45' W 122°21'0 0.0
2017-Nov-02 10:28N 37°45' W 122°21'0 0.0
2017-Nov-02 09:58N 37°45' W 122°21'0 0.0
2017-Nov-02 09:28N 37°45' W 122°21'0 0.0
2017-Nov-02 08:58N 37°45' W 122°21'0 0.0
2017-Nov-02 08:28N 37°45' W 122°21'0 0.0
2017-Nov-02 08:01N 37°45' W 122°21'0 0.3
2017-Nov-02 07:31N 37°45' W 122°21'0 0.3
2017-Nov-02 07:01N 37°45' W 122°21'0 0.0
2017-Nov-02 06:28N 37°45' W 122°21'0 0.0
2017-Nov-02 06:01N 37°45' W 122°21'0 0.0
2017-Nov-02 05:28N 37°45' W 122°21'0 0.1
2017-Nov-02 05:01N 37°45' W 122°20'0 0.1
2017-Nov-02 04:28N 37°45' W 122°21'0 0.0
2017-Nov-02 03:58N 37°45' W 122°21'0 0.0
2017-Nov-02 03:31N 37°45' W 122°21'0 0.2
2017-Nov-02 03:00N 37°45' W 122°20'1 2.9
2017-Nov-02 02:31N 37°46' W 122°22'510.4
2017-Nov-02 02:00N 37°50' W 122°24'612.5
2017-Nov-02 01:30N 37°56' W 122°27'612.6
2017-Nov-02 01:00N 38°02' W 122°22'613.0
2017-Nov-02 00:30N 38°04' W 122°15'  

Dump ship's entire track history